TAF and METAR

METAR for Carlos Ibanez Del Campo International Airport

SCCI 172000Z 24032G42KT CAVOK 15/01 Q1012 NOSIG
Report created 17. jan 21:00
wind 32 knots from WSW (240°) with gusts up to 42 knots Clear sky Temperature 15° with dewpoint at 1° (Humidity 38.57%) Pressure 1012 hPa no significant weather change expected the next couple of hours
No TAF available for Carlos Ibanez Del Campo International Airport
Carlos Ibanez Del Campo International Airport in Chile at 37m

Latest 5 airports